Time,TemperatureF,DewpointF,PressureIn,WindDirection,WindDirectionDegrees,WindSpeedMPH,WindSpeedGustMPH,Humidity,HourlyPrecipIn,Conditions,Clouds,dailyrainin,SolarRadiationWatts/m^2,SoftwareType,DateUTC
2013-01-14 00:03:00,35.0,34.0,-100.00,NW,326,5.0,11.0,97,0.00,,,2.23,0.000000,,2013-01-14 06:03:00,
2013-01-14 00:33:00,34.0,33.0,-100.00,NNW,338,7.0,11.0,96,0.00,,,2.23,0.000000,,2013-01-14 06:33:00,
2013-01-14 00:43:00,34.0,33.0,-100.00,NNW,338,7.0,11.0,96,0.00,,,2.23,0.000000,,2013-01-14 06:43:00,
2013-01-14 00:53:00,34.0,33.0,-100.00,NNW,338,7.0,11.0,96,0.00,,,2.23,0.000000,,2013-01-14 06:53:00,
2013-01-14 01:02:00,34.0,33.0,-100.00,NNW,338,7.0,11.0,96,0.00,,,2.23,0.000000,,2013-01-14 07:02:00,
2013-01-14 01:33:00,33.0,32.0,-100.00,NNW,340,8.0,13.0,97,0.00,,,2.23,0.000000,,2013-01-14 07:33:00,
2013-01-14 01:43:00,33.0,32.0,-100.00,NNW,340,8.0,13.0,97,0.00,,,2.23,0.000000,,2013-01-14 07:43:00,
2013-01-14 01:53:00,33.0,32.0,-100.00,NNW,340,8.0,13.0,97,0.00,,,2.23,0.000000,,2013-01-14 07:53:00,
2013-01-14 02:02:00,33.0,32.0,-100.00,NNW,340,8.0,13.0,97,0.00,,,2.23,0.000000,,2013-01-14 08:02:00,
2013-01-14 02:33:00,32.0,31.0,-100.00,NNW,338,7.0,13.0,97,0.00,,,2.23,0.000000,,2013-01-14 08:33:00,
2013-01-14 02:43:00,32.0,31.0,-100.00,NNW,338,7.0,13.0,97,0.00,,,2.23,0.000000,,2013-01-14 08:43:00,
2013-01-14 02:53:00,32.0,31.0,-100.00,NNW,338,7.0,13.0,97,0.00,,,2.23,0.000000,,2013-01-14 08:53:00,
2013-01-14 03:02:00,32.0,31.0,-100.00,NNW,338,7.0,13.0,97,0.00,,,2.23,0.000000,,2013-01-14 09:02:00,
2013-01-14 03:34:00,31.0,30.0,-100.00,NNW,340,8.0,14.0,95,0.00,,,2.23,0.000000,,2013-01-14 09:34:00,
2013-01-14 03:43:00,31.0,30.0,-100.00,NNW,340,8.0,14.0,95,0.00,,,2.23,0.000000,,2013-01-14 09:43:00,
2013-01-14 03:53:00,31.0,30.0,-100.00,NNW,340,8.0,14.0,95,0.00,,,2.23,0.000000,,2013-01-14 09:53:00,
2013-01-14 04:02:00,31.0,30.0,-100.00,NNW,340,8.0,14.0,95,0.00,,,2.23,0.000000,,2013-01-14 10:02:00,
2013-01-14 04:33:00,30.0,29.0,-100.00,North,3,7.0,16.0,95,0.00,,,2.23,0.000000,,2013-01-14 10:33:00,
2013-01-14 04:43:00,30.0,29.0,-100.00,North,3,7.0,16.0,95,0.00,,,2.23,0.000000,,2013-01-14 10:43:00,
2013-01-14 04:53:00,30.0,29.0,-100.00,North,3,7.0,16.0,95,0.00,,,2.23,0.000000,,2013-01-14 10:53:00,
2013-01-14 05:02:00,30.0,29.0,-100.00,North,3,7.0,16.0,95,0.00,,,2.23,0.000000,,2013-01-14 11:02:00,
2013-01-14 05:33:00,30.0,28.0,-100.00,North,349,9.0,15.0,93,0.00,,,2.22,0.000000,,2013-01-14 11:33:00,
2013-01-14 05:43:00,30.0,28.0,-100.00,North,349,9.0,15.0,93,0.00,,,2.22,0.000000,,2013-01-14 11:43:00,
2013-01-14 05:53:00,30.0,28.0,-100.00,North,349,9.0,15.0,93,0.00,,,2.22,0.000000,,2013-01-14 11:53:00,
2013-01-14 06:03:00,30.0,28.0,-100.00,North,349,9.0,15.0,93,0.00,,,2.22,0.000000,,2013-01-14 12:03:00,
2013-01-14 06:33:00,29.0,27.0,-100.00,North,8,8.0,14.0,91,0.00,,,2.21,0.000000,,2013-01-14 12:33:00,
2013-01-14 06:43:00,29.0,27.0,-100.00,North,8,8.0,14.0,91,0.00,,,2.21,0.000000,,2013-01-14 12:43:00,
2013-01-14 06:53:00,29.0,27.0,-100.00,North,8,8.0,14.0,91,0.00,,,2.21,0.000000,,2013-01-14 12:53:00,
2013-01-14 07:03:00,29.0,27.0,-100.00,North,8,8.0,14.0,91,0.00,,,2.21,0.000000,,2013-01-14 13:03:00,
2013-01-14 07:33:00,29.0,26.0,-100.00,NNE,12,7.0,18.0,90,0.00,,,2.02,0.000000,,2013-01-14 13:33:00,
2013-01-14 07:43:00,29.0,26.0,-100.00,NNE,12,7.0,18.0,90,0.00,,,2.02,0.000000,,2013-01-14 13:43:00,
2013-01-14 07:53:00,29.0,26.0,-100.00,NNE,12,7.0,18.0,90,0.00,,,2.02,0.000000,,2013-01-14 13:53:00,
2013-01-14 08:03:00,29.0,26.0,-100.00,NNE,12,7.0,18.0,90,0.00,,,2.02,0.000000,,2013-01-14 14:03:00,
2013-01-14 08:33:00,29.0,27.0,-100.00,NNE,20,8.0,14.0,91,0.00,,,1.95,16.000000,,2013-01-14 14:33:00,
2013-01-14 08:43:00,29.0,27.0,-100.00,NNE,20,8.0,14.0,91,0.00,,,1.95,16.000000,,2013-01-14 14:43:00,
2013-01-14 08:53:00,29.0,27.0,-100.00,NNE,20,8.0,14.0,91,0.00,,,1.95,16.000000,,2013-01-14 14:53:00,
2013-01-14 09:03:00,29.0,27.0,-100.00,NNE,20,8.0,14.0,91,0.00,,,1.95,16.000000,,2013-01-14 15:03:00,
2013-01-14 09:34:00,29.0,26.0,-100.00,NNE,18,7.0,15.0,87,0.00,,,1.85,66.000000,,2013-01-14 15:34:00,
2013-01-14 09:43:00,29.0,26.0,-100.00,NNE,18,7.0,15.0,87,0.00,,,1.85,66.000000,,2013-01-14 15:43:00,
2013-01-14 09:53:00,29.0,26.0,-100.00,NNE,18,7.0,15.0,87,0.00,,,1.85,66.000000,,2013-01-14 15:53:00,
2013-01-14 10:03:00,29.0,26.0,-100.00,NNE,18,7.0,15.0,87,0.00,,,1.85,66.000000,,2013-01-14 16:03:00,
2013-01-14 10:33:00,31.0,27.0,-100.00,NE,36,6.0,14.0,85,0.00,,,1.78,99.000000,,2013-01-14 16:33:00,
2013-01-14 10:43:00,31.0,27.0,-100.00,NE,36,6.0,14.0,85,0.00,,,1.78,99.000000,,2013-01-14 16:43:00,
2013-01-14 10:53:00,31.0,27.0,-100.00,NE,36,6.0,14.0,85,0.00,,,1.78,99.000000,,2013-01-14 16:53:00,
2013-01-14 11:03:00,31.0,27.0,-100.00,NE,36,6.0,14.0,85,0.00,,,1.78,99.000000,,2013-01-14 17:03:00,
2013-01-14 11:33:00,32.0,27.0,-100.00,NNE,27,6.0,11.0,83,0.00,,,1.67,167.000000,,2013-01-14 17:33:00,
2013-01-14 11:43:00,32.0,27.0,-100.00,NNE,27,6.0,11.0,83,0.00,,,1.67,167.000000,,2013-01-14 17:43:00,
2013-01-14 11:54:00,32.0,27.0,-100.00,NNE,27,6.0,11.0,83,0.00,,,1.67,167.000000,,2013-01-14 17:54:00,
2013-01-14 12:03:00,32.0,27.0,-100.00,NNE,27,6.0,11.0,83,0.00,,,1.67,167.000000,,2013-01-14 18:03:00,
2013-01-14 12:33:00,33.0,28.0,-100.00,NNE,15,8.0,12.0,81,0.00,,,1.61,133.000000,,2013-01-14 18:33:00,
2013-01-14 12:43:00,33.0,28.0,-100.00,NNE,15,8.0,12.0,81,0.00,,,1.61,133.000000,,2013-01-14 18:43:00,
2013-01-14 12:53:00,33.0,28.0,-100.00,NNE,15,8.0,12.0,81,0.00,,,1.61,133.000000,,2013-01-14 18:53:00,
2013-01-14 13:03:00,33.0,28.0,-100.00,NNE,15,8.0,12.0,81,0.00,,,1.61,133.000000,,2013-01-14 19:03:00,
2013-01-14 13:33:00,33.0,27.0,-100.00,NNE,22,7.0,16.0,77,0.00,,,1.26,168.000000,,2013-01-14 19:33:00,
2013-01-14 13:43:00,33.0,27.0,-100.00,NNE,22,7.0,16.0,77,0.00,,,1.26,168.000000,,2013-01-14 19:43:00,
2013-01-14 13:53:00,33.0,27.0,-100.00,NNE,22,7.0,16.0,77,0.00,,,1.26,168.000000,,2013-01-14 19:53:00,
2013-01-14 14:03:00,33.0,27.0,-100.00,NNE,22,7.0,16.0,77,0.00,,,1.26,168.000000,,2013-01-14 20:03:00,
2013-01-14 14:33:00,33.0,27.0,-100.00,NNW,337,9.0,16.0,78,0.00,,,1.20,46.000000,,2013-01-14 20:33:00,
2013-01-14 14:43:00,33.0,27.0,-100.00,NNW,337,9.0,16.0,78,0.00,,,1.20,46.000000,,2013-01-14 20:43:00,
2013-01-14 14:53:00,33.0,27.0,-100.00,NNW,337,9.0,16.0,78,0.00,,,1.20,46.000000,,2013-01-14 20:53:00,
2013-01-14 15:03:00,33.0,27.0,-100.00,NNW,337,9.0,16.0,78,0.00,,,1.20,46.000000,,2013-01-14 21:03:00,
2013-01-14 15:33:00,31.0,26.0,-100.00,North,357,12.0,21.0,80,0.00,,,0.65,40.000000,,2013-01-14 21:33:00,
2013-01-14 15:43:00,31.0,26.0,-100.00,North,357,12.0,21.0,80,0.00,,,0.65,40.000000,,2013-01-14 21:43:00,
2013-01-14 15:53:00,31.0,26.0,-100.00,North,357,12.0,21.0,80,0.00,,,0.65,40.000000,,2013-01-14 21:53:00,
2013-01-14 16:03:00,31.0,26.0,-100.00,North,357,12.0,21.0,80,0.00,,,0.65,40.000000,,2013-01-14 22:03:00,
2013-01-14 16:33:00,30.0,25.0,-100.00,NNE,26,9.0,20.0,81,0.00,,,-99.99,17.000000,,2013-01-14 22:33:00,
2013-01-14 16:43:00,30.0,25.0,-100.00,NNE,26,9.0,20.0,81,0.00,,,-99.99,17.000000,,2013-01-14 22:43:00,
2013-01-14 16:53:00,30.0,25.0,-100.00,NNE,26,9.0,20.0,81,0.00,,,-99.99,17.000000,,2013-01-14 22:53:00,
2013-01-14 17:03:00,30.0,25.0,-100.00,NNE,26,9.0,20.0,81,0.00,,,-99.99,17.000000,,2013-01-14 23:03:00,
2013-01-14 17:33:00,31.0,29.0,-100.00,NE,49,4.0,14.0,93,0.00,,,0.10,2.000000,,2013-01-14 23:33:00,
2013-01-14 17:43:00,31.0,29.0,-100.00,NE,49,4.0,14.0,93,0.00,,,0.10,2.000000,,2013-01-14 23:43:00,
2013-01-14 17:53:00,31.0,29.0,-100.00,NE,49,4.0,14.0,93,0.00,,,0.10,2.000000,,2013-01-14 23:53:00,
2013-01-14 18:03:00,31.0,29.0,-100.00,NE,49,4.0,14.0,93,0.00,,,0.10,2.000000,,2013-01-15 00:03:00,
2013-01-14 18:33:00,30.0,28.0,-100.00,ENE,67,3.0,8.0,94,0.00,,,0.03,0.000000,,2013-01-15 00:33:00,
2013-01-14 18:43:00,30.0,28.0,-100.00,ENE,67,3.0,8.0,94,0.00,,,0.03,0.000000,,2013-01-15 00:43:00,
2013-01-14 18:53:00,30.0,28.0,-100.00,ENE,67,3.0,8.0,94,0.00,,,0.03,0.000000,,2013-01-15 00:53:00,
2013-01-14 19:02:00,30.0,28.0,-100.00,ENE,67,3.0,8.0,94,0.00,,,0.03,0.000000,,2013-01-15 01:02:00,
2013-01-14 20:33:00,30.0,29.0,-100.00,NE,35,4.0,8.0,98,-99.99,,,0.00,0.000000,,2013-01-15 02:33:00,
2013-01-14 20:43:00,30.0,29.0,-100.00,NE,35,4.0,8.0,98,-99.99,,,0.00,0.000000,,2013-01-15 02:43:00,
2013-01-14 20:53:00,30.0,29.0,-100.00,NE,35,4.0,8.0,98,-99.99,,,0.00,0.000000,,2013-01-15 02:53:00,
2013-01-14 21:02:00,30.0,29.0,-100.00,NE,35,4.0,8.0,98,-99.99,,,0.00,0.000000,,2013-01-15 03:02:00,
2013-01-14 21:33:00,30.0,29.0,-100.00,NE,43,4.0,11.0,98,0.00,,,0.00,0.000000,,2013-01-15 03:33:00,
2013-01-14 21:43:00,30.0,29.0,-100.00,NE,43,4.0,11.0,98,0.00,,,0.00,0.000000,,2013-01-15 03:43:00,
2013-01-14 21:53:00,30.0,29.0,-100.00,NE,43,4.0,11.0,98,0.00,,,0.00,0.000000,,2013-01-15 03:53:00,
2013-01-14 22:02:00,30.0,29.0,-100.00,NE,43,4.0,11.0,98,0.00,,,0.00,0.000000,,2013-01-15 04:02:00,
2013-01-14 22:33:00,30.0,30.0,-100.00,NNE,18,6.0,9.0,99,0.00,,,0.00,0.000000,,2013-01-15 04:33:00,
2013-01-14 22:42:00,30.0,30.0,-100.00,NNE,18,6.0,9.0,99,0.00,,,0.00,0.000000,,2013-01-15 04:42:00,
2013-01-14 22:52:00,30.0,30.0,-100.00,NNE,18,6.0,9.0,99,0.00,,,0.00,0.000000,,2013-01-15 04:52:00,
2013-01-14 23:03:00,30.0,30.0,-100.00,NNE,18,6.0,9.0,99,0.00,,,0.00,0.000000,,2013-01-15 05:03:00,
2013-01-14 23:33:00,30.0,29.0,-100.00,NNE,28,6.0,11.0,98,0.00,,,0.00,0.000000,,2013-01-15 05:33:00,
2013-01-14 23:42:00,30.0,29.0,-100.00,NNE,28,6.0,11.0,98,0.00,,,0.00,0.000000,,2013-01-15 05:42:00,
2013-01-14 23:53:00,30.0,29.0,-100.00,NNE,28,6.0,11.0,98,0.00,,,0.00,0.000000,,2013-01-15 05:53:00,